sensor_id;sensor_type;location;lat;lon;timestamp;pressure;altitude;pressure_sealevel;temperature;humidity
58991;BME280;44781;53.444;14.476;2023-03-12T00:04:07;100688.15;;;2.06;71.78
58991;BME280;44781;53.444;14.476;2023-03-12T00:10:29;100692.92;;;2.04;72.06
58991;BME280;44781;53.444;14.476;2023-03-12T00:13:00;100692.75;;;2.04;72.19
58991;BME280;44781;53.444;14.476;2023-03-12T00:15:30;100697.59;;;2.05;72.20
58991;BME280;44781;53.444;14.476;2023-03-12T02:34:55;100811.09;;;1.01;69.79
58991;BME280;44781;53.444;14.476;2023-03-12T02:42:14;100817.27;;;0.98;70.00
58991;BME280;44781;53.444;14.476;2023-03-12T03:21:31;100847.96;;;1.02;70.06
58991;BME280;44781;53.444;14.476;2023-03-12T06:23:39;101016.48;;;0.53;72.84
58991;BME280;44781;53.444;14.476;2023-03-12T06:31:10;101017.03;;;0.47;72.86
58991;BME280;44781;53.444;14.476;2023-03-12T06:34:17;101017.00;;;0.48;72.80
58991;BME280;44781;53.444;14.476;2023-03-12T06:37:29;101023.36;;;0.51;72.82
58991;BME280;44781;53.444;14.476;2023-03-12T06:40:17;101026.79;;;0.52;72.79
58991;BME280;44781;53.444;14.476;2023-03-12T06:43:42;101029.80;;;0.55;72.72
58991;BME280;44781;53.444;14.476;2023-03-12T06:46:57;101030.88;;;0.60;72.64
58991;BME280;44781;53.444;14.476;2023-03-12T06:50:34;101023.38;;;0.61;72.44
58991;BME280;44781;53.444;14.476;2023-03-12T06:53:24;101037.59;;;0.74;72.47
58991;BME280;44781;53.444;14.476;2023-03-12T07:01:19;101038.99;;;0.85;72.20
58991;BME280;44781;53.444;14.476;2023-03-12T07:03:59;101039.78;;;0.88;72.05
58991;BME280;44781;53.444;14.476;2023-03-12T07:11:00;101041.66;;;0.89;71.91
58991;BME280;44781;53.444;14.476;2023-03-12T07:40:51;101057.65;;;1.94;70.09
58991;BME280;44781;53.444;14.476;2023-03-12T07:57:10;101070.19;;;1.74;70.04
58991;BME280;44781;53.444;14.476;2023-03-12T07:59:36;101068.54;;;1.77;69.82
58991;BME280;44781;53.444;14.476;2023-03-12T08:02:05;101067.56;;;1.80;69.80
58991;BME280;44781;53.444;14.476;2023-03-12T08:04:54;101073.23;;;1.82;69.66
58991;BME280;44781;53.444;14.476;2023-03-12T08:18:50;101075.11;;;1.89;69.18
58991;BME280;44781;53.444;14.476;2023-03-12T08:22:05;101072.61;;;1.90;69.00
58991;BME280;44781;53.444;14.476;2023-03-12T08:24:34;101070.50;;;1.90;68.85
58991;BME280;44781;53.444;14.476;2023-03-12T08:27:03;101071.67;;;1.92;68.61
58991;BME280;44781;53.444;14.476;2023-03-12T08:29:31;101074.73;;;1.94;68.52
58991;BME280;44781;53.444;14.476;2023-03-12T08:32:00;101077.33;;;2.00;68.58
58991;BME280;44781;53.444;14.476;2023-03-12T08:34:27;101078.66;;;2.06;68.47
58991;BME280;44781;53.444;14.476;2023-03-12T08:37:30;101079.38;;;2.10;68.23
58991;BME280;44781;53.444;14.476;2023-03-12T08:44:08;101081.85;;;2.24;67.86
58991;BME280;44781;53.444;14.476;2023-03-12T08:47:04;101084.48;;;2.28;67.64
58991;BME280;44781;53.444;14.476;2023-03-12T08:49:39;101082.16;;;2.30;67.38
58991;BME280;44781;53.444;14.476;2023-03-12T08:53:25;101082.16;;;2.30;66.94
58991;BME280;44781;53.444;14.476;2023-03-12T08:56:47;101090.94;;;2.33;67.07
58991;BME280;44781;53.444;14.476;2023-03-12T08:59:31;101096.87;;;2.38;67.12
58991;BME280;44781;53.444;14.476;2023-03-12T09:02:29;101100.02;;;2.43;66.88
58991;BME280;44781;53.444;14.476;2023-03-12T09:05:47;101102.03;;;2.50;66.65
58991;BME280;44781;53.444;14.476;2023-03-12T09:08:23;101106.34;;;2.56;66.49
58991;BME280;44781;53.444;14.476;2023-03-12T09:10:54;101107.70;;;2.61;66.22
58991;BME280;44781;53.444;14.476;2023-03-12T09:14:11;101104.23;;;2.66;65.99
58991;BME280;44781;53.444;14.476;2023-03-12T09:17:42;101109.77;;;2.71;65.86
58991;BME280;44781;53.444;14.476;2023-03-12T09:21:18;101113.88;;;2.83;65.61
58991;BME280;44781;53.444;14.476;2023-03-12T09:24:23;101116.73;;;2.95;65.16
58991;BME280;44781;53.444;14.476;2023-03-12T09:31:52;101120.02;;;3.27;64.24
58991;BME280;44781;53.444;14.476;2023-03-12T09:34:34;101120.24;;;3.39;63.97
58991;BME280;44781;53.444;14.476;2023-03-12T09:37:08;101119.37;;;3.47;63.87
58991;BME280;44781;53.444;14.476;2023-03-12T09:39:37;101118.98;;;3.57;63.93
58991;BME280;44781;53.444;14.476;2023-03-12T09:42:24;101123.02;;;3.65;63.97
58991;BME280;44781;53.444;14.476;2023-03-12T09:45:59;101118.36;;;3.72;63.70
58991;BME280;44781;53.444;14.476;2023-03-12T09:49:13;101118.81;;;3.78;63.50
58991;BME280;44781;53.444;14.476;2023-03-12T09:51:57;101113.89;;;3.83;63.07
58991;BME280;44781;53.444;14.476;2023-03-12T09:55:31;101115.20;;;3.89;63.21
58991;BME280;44781;53.444;14.476;2023-03-12T09:57:39;101116.54;;;3.94;62.80
58991;BME280;44781;53.444;14.476;2023-03-12T10:00:16;101110.95;;;3.99;62.57
58991;BME280;44781;53.444;14.476;2023-03-12T10:49:31;101103.12;;;4.65;59.70
58991;BME280;44781;53.444;14.476;2023-03-12T10:52:24;101102.05;;;4.69;59.28
58991;BME280;44781;53.444;14.476;2023-03-12T10:55:19;101103.25;;;4.73;58.96
58991;BME280;44781;53.444;14.476;2023-03-12T10:57:58;101103.13;;;4.80;58.66
58991;BME280;44781;53.444;14.476;2023-03-12T11:04:18;101094.81;;;4.93;57.73
58991;BME280;44781;53.444;14.476;2023-03-12T11:09:42;101096.29;;;5.06;57.06
58991;BME280;44781;53.444;14.476;2023-03-12T11:12:28;101101.15;;;5.14;56.66
58991;BME280;44781;53.444;14.476;2023-03-12T11:19:59;101092.33;;;5.27;55.03
58991;BME280;44781;53.444;14.476;2023-03-12T11:23:28;101102.08;;;5.32;54.85
58991;BME280;44781;53.444;14.476;2023-03-12T11:26:32;101107.92;;;5.34;54.39
58991;BME280;44781;53.444;14.476;2023-03-12T11:34:32;101094.92;;;5.49;54.62
58991;BME280;44781;53.444;14.476;2023-03-12T11:37:41;101090.23;;;5.56;54.72
58991;BME280;44781;53.444;14.476;2023-03-12T11:52:04;101071.45;;;5.95;52.91
58991;BME280;44781;53.444;14.476;2023-03-12T11:55:05;101069.02;;;6.01;52.78
58991;BME280;44781;53.444;14.476;2023-03-12T12:21:57;101031.99;;;6.51;50.79
58991;BME280;44781;53.444;14.476;2023-03-12T12:24:55;101025.66;;;6.51;50.28
58991;BME280;44781;53.444;14.476;2023-03-12T12:32:06;101020.55;;;6.61;50.53
58991;BME280;44781;53.444;14.476;2023-03-12T12:35:34;101019.55;;;6.69;50.37
58991;BME280;44781;53.444;14.476;2023-03-12T12:42:34;100999.45;;;6.80;49.42
58991;BME280;44781;53.444;14.476;2023-03-12T12:45:30;100994.37;;;6.83;49.58
58991;BME280;44781;53.444;14.476;2023-03-12T12:48:10;100991.33;;;6.87;49.66
58991;BME280;44781;53.444;14.476;2023-03-12T12:50:39;100982.27;;;6.92;49.70
58991;BME280;44781;53.444;14.476;2023-03-12T12:53:35;100976.63;;;6.96;49.88
58991;BME280;44781;53.444;14.476;2023-03-12T12:59:24;100978.59;;;7.11;49.67
58991;BME280;44781;53.444;14.476;2023-03-12T13:02:46;100980.37;;;7.16;49.35
58991;BME280;44781;53.444;14.476;2023-03-12T13:09:51;100982.59;;;7.26;49.35
58991;BME280;44781;53.444;14.476;2023-03-12T13:13:30;100971.41;;;7.25;48.88
58991;BME280;44781;53.444;14.476;2023-03-12T13:16:32;100972.98;;;7.37;49.18
58991;BME280;44781;53.444;14.476;2023-03-12T13:22:16;100970.41;;;7.66;49.53
58991;BME280;44781;53.444;14.476;2023-03-12T13:25:20;100972.18;;;7.83;49.90
58991;BME280;44781;53.444;14.476;2023-03-12T13:34:47;100952.20;;;8.44;49.90
58991;BME280;44781;53.444;14.476;2023-03-12T13:37:55;100950.44;;;8.61;49.63
58991;BME280;44781;53.444;14.476;2023-03-12T13:41:06;100947.84;;;8.79;49.39
58991;BME280;44781;53.444;14.476;2023-03-12T13:46:31;100939.14;;;8.96;48.70
58991;BME280;44781;53.444;14.476;2023-03-12T13:49:18;100927.44;;;9.00;48.38
58991;BME280;44781;53.444;14.476;2023-03-12T13:51:58;100926.67;;;9.03;48.09
58991;BME280;44781;53.444;14.476;2023-03-12T13:54:40;100932.73;;;9.03;47.67
58991;BME280;44781;53.444;14.476;2023-03-12T13:57:20;100924.08;;;9.00;47.50
58991;BME280;44781;53.444;14.476;2023-03-12T13:59:56;100905.73;;;8.98;47.49
58991;BME280;44781;53.444;14.476;2023-03-12T14:02:36;100910.91;;;8.94;47.67
58991;BME280;44781;53.444;14.476;2023-03-12T14:05:08;100929.71;;;8.90;47.51
58991;BME280;44781;53.444;14.476;2023-03-12T14:21:20;100944.18;;;8.43;47.85
58991;BME280;44781;53.444;14.476;2023-03-12T14:24:27;100934.48;;;8.29;48.01
58991;BME280;44781;53.444;14.476;2023-03-12T14:27:00;100939.00;;;8.22;47.88
58991;BME280;44781;53.444;14.476;2023-03-12T14:36:48;100926.21;;;7.89;48.55
58991;BME280;44781;53.444;14.476;2023-03-12T14:42:26;100920.02;;;7.70;48.56
58991;BME280;44781;53.444;14.476;2023-03-12T14:45:18;100916.42;;;7.63;48.94
58991;BME280;44781;53.444;14.476;2023-03-12T14:47:56;100906.99;;;7.56;49.13
58991;BME280;44781;53.444;14.476;2023-03-12T14:50:28;100897.83;;;7.51;49.30
58991;BME280;44781;53.444;14.476;2023-03-12T14:53:41;100883.29;;;7.44;49.42
58991;BME280;44781;53.444;14.476;2023-03-12T14:56:55;100872.66;;;7.37;49.37
58991;BME280;44781;53.444;14.476;2023-03-12T15:00:24;100855.98;;;7.30;49.72
58991;BME280;44781;53.444;14.476;2023-03-12T15:04:00;100830.09;;;7.17;49.93
58991;BME280;44781;53.444;14.476;2023-03-12T15:07:08;100843.21;;;7.21;50.05
58991;BME280;44781;53.444;14.476;2023-03-12T15:10:25;100841.17;;;7.17;50.45
58991;BME280;44781;53.444;14.476;2023-03-12T15:12:58;100835.40;;;7.14;50.62
58991;BME280;44781;53.444;14.476;2023-03-12T15:15:45;100835.94;;;7.10;50.70
58991;BME280;44781;53.444;14.476;2023-03-12T15:18:24;100835.95;;;7.07;50.64
58991;BME280;44781;53.444;14.476;2023-03-12T15:20:54;100834.24;;;7.03;50.72
58991;BME280;44781;53.444;14.476;2023-03-12T15:23:29;100828.14;;;7.00;50.91
58991;BME280;44781;53.444;14.476;2023-03-12T15:29:04;100813.88;;;6.95;51.01
58991;BME280;44781;53.444;14.476;2023-03-12T15:31:56;100806.15;;;6.92;51.17
58991;BME280;44781;53.444;14.476;2023-03-12T15:34:42;100805.83;;;6.88;51.36
58991;BME280;44781;53.444;14.476;2023-03-12T15:37:54;100802.90;;;6.84;51.53
58991;BME280;44781;53.444;14.476;2023-03-12T15:40:29;100804.52;;;6.81;51.73
58991;BME280;44781;53.444;14.476;2023-03-12T15:43:01;100799.20;;;6.79;51.76
58991;BME280;44781;53.444;14.476;2023-03-12T15:45:43;100792.45;;;6.77;51.79
58991;BME280;44781;53.444;14.476;2023-03-12T15:48:37;100790.35;;;6.74;51.83
58991;BME280;44781;53.444;14.476;2023-03-12T15:51:29;100784.58;;;6.70;52.00
58991;BME280;44781;53.444;14.476;2023-03-12T15:56:47;100801.05;;;6.62;52.13
58991;BME280;44781;53.444;14.476;2023-03-12T15:59:27;100802.33;;;6.58;52.00
58991;BME280;44781;53.444;14.476;2023-03-12T16:01:55;100794.55;;;6.53;52.12
58991;BME280;44781;53.444;14.476;2023-03-12T16:04:25;100789.88;;;6.49;52.16
58991;BME280;44781;53.444;14.476;2023-03-12T16:06:55;100790.46;;;6.45;52.19
58991;BME280;44781;53.444;14.476;2023-03-12T16:09:28;100788.45;;;6.41;52.18
58991;BME280;44781;53.444;14.476;2023-03-12T16:11:58;100786.94;;;6.36;52.18
58991;BME280;44781;53.444;14.476;2023-03-12T16:14:31;100782.59;;;6.33;52.34
58991;BME280;44781;53.444;14.476;2023-03-12T16:17:01;100775.10;;;6.28;52.29
58991;BME280;44781;53.444;14.476;2023-03-12T16:19:35;100777.07;;;6.25;52.33
58991;BME280;44781;53.444;14.476;2023-03-12T16:22:16;100773.96;;;6.21;52.38
58991;BME280;44781;53.444;14.476;2023-03-12T16:24:52;100760.96;;;6.09;52.48
58991;BME280;44781;53.444;14.476;2023-03-12T16:27:34;100769.23;;;6.11;52.63
58991;BME280;44781;53.444;14.476;2023-03-12T16:30:39;100769.67;;;6.07;52.95
58991;BME280;44781;53.444;14.476;2023-03-12T16:36:45;100782.86;;;5.97;53.20
58991;BME280;44781;53.444;14.476;2023-03-12T16:40:07;100775.42;;;5.91;53.36
58991;BME280;44781;53.444;14.476;2023-03-12T16:42:39;100780.18;;;5.88;53.67
58991;BME280;44781;53.444;14.476;2023-03-12T16:45:21;100781.48;;;5.83;53.87
58991;BME280;44781;53.444;14.476;2023-03-12T16:48:19;100782.80;;;5.79;54.03
58991;BME280;44781;53.444;14.476;2023-03-12T16:50:56;100782.38;;;5.74;54.49
58991;BME280;44781;53.444;14.476;2023-03-12T16:53:31;100775.27;;;5.69;54.59
58991;BME280;44781;53.444;14.476;2023-03-12T16:56:04;100774.05;;;5.66;54.73
58991;BME280;44781;53.444;14.476;2023-03-12T16:58:45;100775.99;;;5.62;54.88
58991;BME280;44781;53.444;14.476;2023-03-12T17:01:47;100773.10;;;5.58;54.91
58991;BME280;44781;53.444;14.476;2023-03-12T17:04:18;100767.50;;;5.54;54.94
58991;BME280;44781;53.444;14.476;2023-03-12T17:06:50;100759.55;;;5.49;54.94
58991;BME280;44781;53.444;14.476;2023-03-12T17:09:25;100758.31;;;5.46;54.92
58991;BME280;44781;53.444;14.476;2023-03-12T17:11:56;100751.16;;;5.42;55.07
58991;BME280;44781;53.444;14.476;2023-03-12T17:14:38;100750.46;;;5.39;55.10
58991;BME280;44781;53.444;14.476;2023-03-12T17:17:11;100750.77;;;5.36;55.15
58991;BME280;44781;53.444;14.476;2023-03-12T17:20:02;100754.81;;;5.32;55.22
58991;BME280;44781;53.444;14.476;2023-03-12T17:22:54;100756.81;;;5.28;55.43
58991;BME280;44781;53.444;14.476;2023-03-12T17:25:27;100758.30;;;5.27;55.64
58991;BME280;44781;53.444;14.476;2023-03-12T17:28:00;100757.92;;;5.24;55.72
58991;BME280;44781;53.444;14.476;2023-03-12T17:30:38;100761.45;;;5.20;55.81
58991;BME280;44781;53.444;14.476;2023-03-12T17:33:39;100759.70;;;5.17;55.93
58991;BME280;44781;53.444;14.476;2023-03-12T17:36:23;100754.77;;;5.14;55.94
58991;BME280;44781;53.444;14.476;2023-03-12T17:39:03;100756.50;;;5.11;55.97
58991;BME280;44781;53.444;14.476;2023-03-12T17:41:35;100754.21;;;5.08;55.88
58991;BME280;44781;53.444;14.476;2023-03-12T17:44:07;100753.79;;;5.06;56.13
58991;BME280;44781;53.444;14.476;2023-03-12T17:46:41;100760.05;;;5.04;56.12
58991;BME280;44781;53.444;14.476;2023-03-12T17:49:38;100757.57;;;5.01;55.98
58991;BME280;44781;53.444;14.476;2023-03-12T17:52:14;100765.56;;;4.99;56.12
58991;BME280;44781;53.444;14.476;2023-03-12T17:54:47;100766.52;;;4.97;55.75
58991;BME280;44781;53.444;14.476;2023-03-12T17:57:21;100764.49;;;4.96;55.50
58991;BME280;44781;53.444;14.476;2023-03-12T17:59:55;100760.18;;;4.94;55.29
58991;BME280;44781;53.444;14.476;2023-03-12T18:02:22;100750.95;;;4.93;55.09
58991;BME280;44781;53.444;14.476;2023-03-12T18:05:19;100747.56;;;4.91;55.03
58991;BME280;44781;53.444;14.476;2023-03-12T18:07:57;100741.89;;;4.89;54.94
58991;BME280;44781;53.444;14.476;2023-03-12T18:11:10;100736.25;;;4.87;55.04
58991;BME280;44781;53.444;14.476;2023-03-12T18:14:44;100732.24;;;4.83;55.06
58991;BME280;44781;53.444;14.476;2023-03-12T18:17:25;100740.89;;;4.82;55.04
58991;BME280;44781;53.444;14.476;2023-03-12T18:21:00;100743.84;;;4.79;54.82
58991;BME280;44781;53.444;14.476;2023-03-12T18:24:11;100737.59;;;4.74;54.62
58991;BME280;44781;53.444;14.476;2023-03-12T18:26:43;100729.99;;;4.72;54.62
58991;BME280;44781;53.444;14.476;2023-03-12T18:29:16;100715.89;;;4.71;54.74
58991;BME280;44781;53.444;14.476;2023-03-12T18:31:57;100697.77;;;4.70;54.77
58991;BME280;44781;53.444;14.476;2023-03-12T18:34:56;100699.05;;;4.68;54.76
58991;BME280;44781;53.444;14.476;2023-03-12T18:37:29;100702.89;;;4.65;54.75
58991;BME280;44781;53.444;14.476;2023-03-12T18:40:02;100706.52;;;4.63;54.68
58991;BME280;44781;53.444;14.476;2023-03-12T18:42:33;100700.14;;;4.61;54.69
58991;BME280;44781;53.444;14.476;2023-03-12T18:45:42;100701.34;;;4.58;54.65
58991;BME280;44781;53.444;14.476;2023-03-12T19:45:10;100701.58;;;4.19;60.43
58991;BME280;44781;53.444;14.476;2023-03-12T19:48:17;100700.23;;;4.18;60.95
58991;BME280;44781;53.444;14.476;2023-03-12T19:51:46;100695.40;;;4.17;61.33
58991;BME280;44781;53.444;14.476;2023-03-12T19:55:35;100693.74;;;4.15;61.73
58991;BME280;44781;53.444;14.476;2023-03-12T19:59:19;100684.34;;;4.11;62.02
58991;BME280;44781;53.444;14.476;2023-03-12T20:03:14;100677.85;;;4.04;62.34
58991;BME280;44781;53.444;14.476;2023-03-12T20:07:16;100668.98;;;3.92;62.77
58991;BME280;44781;53.444;14.476;2023-03-12T20:14:21;100666.06;;;3.70;63.62
58991;BME280;44781;53.444;14.476;2023-03-12T20:24:36;100649.30;;;3.49;64.54
58991;BME280;44781;53.444;14.476;2023-03-12T21:13:06;100610.42;;;3.64;67.48
58991;BME280;44781;53.444;14.476;2023-03-12T21:19:00;100598.96;;;3.63;67.78
58991;BME280;44781;53.444;14.476;2023-03-12T21:21:38;100598.95;;;3.53;67.95
58991;BME280;44781;53.444;14.476;2023-03-12T21:24:32;100593.63;;;3.44;68.17
58991;BME280;44781;53.444;14.476;2023-03-12T21:26:59;100587.34;;;3.37;68.43
58991;BME280;44781;53.444;14.476;2023-03-12T21:29:41;100586.95;;;3.30;68.70
58991;BME280;44781;53.444;14.476;2023-03-12T21:35:18;100588.98;;;3.25;69.10
58991;BME280;44781;53.444;14.476;2023-03-12T21:37:58;100588.65;;;3.24;69.29
58991;BME280;44781;53.444;14.476;2023-03-12T21:40:40;100575.17;;;3.25;69.55
58991;BME280;44781;53.444;14.476;2023-03-12T21:43:35;100573.21;;;3.26;69.79
58991;BME280;44781;53.444;14.476;2023-03-12T21:46:04;100576.39;;;3.25;69.91
58991;BME280;44781;53.444;14.476;2023-03-12T21:48:52;100568.86;;;3.22;69.91
58991;BME280;44781;53.444;14.476;2023-03-12T21:51:51;100561.33;;;3.19;70.04
58991;BME280;44781;53.444;14.476;2023-03-12T21:54:39;100563.02;;;3.16;70.33
58991;BME280;44781;53.444;14.476;2023-03-12T21:57:27;100569.05;;;3.14;70.38
58991;BME280;44781;53.444;14.476;2023-03-12T22:00:13;100572.95;;;3.13;70.54
58991;BME280;44781;53.444;14.476;2023-03-12T22:03:10;100572.39;;;3.13;70.81
58991;BME280;44781;53.444;14.476;2023-03-12T22:05:42;100568.83;;;3.15;71.00
58991;BME280;44781;53.444;14.476;2023-03-12T22:08:55;100565.60;;;3.17;71.18
58991;BME280;44781;53.444;14.476;2023-03-12T22:16:11;100541.22;;;3.16;71.66
58991;BME280;44781;53.444;14.476;2023-03-12T22:19:21;100534.83;;;3.14;72.00
58991;BME280;44781;53.444;14.476;2023-03-12T22:21:53;100530.20;;;3.16;72.01
58991;BME280;44781;53.444;14.476;2023-03-12T22:25:16;100529.88;;;3.19;72.10
58991;BME280;44781;53.444;14.476;2023-03-12T22:28:16;100523.08;;;3.22;72.37
58991;BME280;44781;53.444;14.476;2023-03-12T22:30:55;100525.34;;;3.26;72.36
58991;BME280;44781;53.444;14.476;2023-03-12T22:41:26;100520.48;;;3.25;72.70
58991;BME280;44781;53.444;14.476;2023-03-12T22:44:17;100511.14;;;3.24;72.80
58991;BME280;44781;53.444;14.476;2023-03-12T22:53:46;100501.67;;;3.32;73.30
58991;BME280;44781;53.444;14.476;2023-03-12T22:57:16;100487.35;;;3.35;73.47
58991;BME280;44781;53.444;14.476;2023-03-12T23:50:00;100446.09;;;4.48;74.50
58991;BME280;44781;53.444;14.476;2023-03-12T23:52:55;100443.20;;;4.47;74.64
58991;BME280;44781;53.444;14.476;2023-03-12T23:59:38;100432.16;;;4.38;74.88
